ATL weather

Hartsfield Jackson Atlanta International Airport
Atlanta, Georgia, United States

Public forecast

Using degrees Fahrenheit for public forecast. Weather courtesy of forecast.io.

METAR (pilot weather report)

Retrieved 2019/01/21 12:52 UTC (56 minutes ago):

KATL 211252Z 31009KT 10SM CLR M06/M12 A3032 RMK AO2 SLP280 T10561122 $

TAF (pilot weather forecast)

Retrieved 2019/01/21 12:27 UTC (1 hour ago):

TAF KATL 211124Z 2112/2218 33010G18KT P6SM SKC FM211400 35008KT P6SM SKC FM211900 04006KT P6SM SKC FM212100 10005KT P6SM SKC FM221200 09010KT P6SM SKC FM221500 10012G18KT P6SM SCT050